Terminal Aerodrome Forecast
Issued by NWS Columbia, SC

Home | Current Version | Previous Version | Text Only | Print | Product List | Glossary On
Versions: 1 2 3 4 5 6 7 8 9 10 11 12 13 14 15 16 17 18 19 20 21 22 23 24 25 26 27 28 29 30 31
326
FTUS42 KCAE 261410 AAB
TAFCAE
TAF AMD
KCAE 261410Z 2614/2712 09004KT P6SM SCT006 OVC015
      TEMPO 2614/2615 OVC006
     FM261600 09005KT P6SM SCT025
     FM261800 12005KT P6SM BKN040
     FM270900 VRB03KT 2SM BR BKN008=

USA.gov is the U.S. government's official web portal to all federal, state and local government web resources and services.